Midland, Arkansas
Current Conditions -  °F | °C
As of 5:35 PM on Friday 19 Dec 2014 (Local Time) from KRKR Reporting Station
Haze Haze  
Wind Chill: 42°   Ceiling: 800
Heat Index: 42°   Visibility: 4mi
Dew Point: 40°   Wind: 0mph
Humidity: 93%   Direction: NA
Pressure: 30.21"   Gusts: NA
Location:  35.09°N, 94.35°W
Report Text: KRKR 192335Z AUTO 00000KT 4SM BR OVC008 06/05 A3021 RMK AO2 T00550045
Loading
Personal Weather Stations






























Interactive Weather Map New forecast layout! Learn more

10-Day Weather Forecast

Advertisements
Track Severe Weather on mobile